createdAt,value
2023-06-17T00:01:28.118Z,12.70
2023-06-17T00:03:54.802Z,12.60
2023-06-17T00:06:21.643Z,12.50
2023-06-17T00:08:49.969Z,12.50
2023-06-17T00:11:16.652Z,12.40
2023-06-17T00:13:43.454Z,12.40
2023-06-17T00:16:10.160Z,12.30
2023-06-17T00:18:37.222Z,12.30
2023-06-17T00:21:03.948Z,12.30
2023-06-17T00:23:31.945Z,12.20
2023-06-17T00:25:58.660Z,12.20
2023-06-17T00:28:25.370Z,12.20
2023-06-17T00:30:52.836Z,12.20
2023-06-17T00:33:19.498Z,12.20
2023-06-17T00:35:46.193Z,12.10
2023-06-17T00:38:12.933Z,12.00
2023-06-17T00:40:39.614Z,12.00
2023-06-17T00:43:06.404Z,11.90
2023-06-17T00:45:39.951Z,11.90
2023-06-17T00:48:08.716Z,11.80
2023-06-17T00:50:37.447Z,11.80
2023-06-17T00:53:05.282Z,11.80
2023-06-17T00:55:33.507Z,11.70
2023-06-17T00:58:01.745Z,11.60
2023-06-17T01:00:29.102Z,11.50
2023-06-17T01:02:57.685Z,11.50
2023-06-17T01:05:25.616Z,11.40
2023-06-17T01:08:15.881Z,11.40
2023-06-17T01:11:13.117Z,11.40
2023-06-17T01:13:43.303Z,11.30
2023-06-17T01:16:11.745Z,11.30
2023-06-17T01:18:41.673Z,11.40
2023-06-17T01:21:09.402Z,11.40
2023-06-17T01:23:39.033Z,11.40
2023-06-17T01:26:08.384Z,11.30
2023-06-17T01:28:41.411Z,11.30
2023-06-17T01:31:09.297Z,11.30
2023-06-17T01:33:37.680Z,11.20
2023-06-17T01:36:20.931Z,11.30
2023-06-17T01:39:01.084Z,11.30
2023-06-17T01:41:34.130Z,11.20
2023-06-17T01:44:04.566Z,11.20
2023-06-17T01:46:31.954Z,11.20
2023-06-17T01:48:58.719Z,11.10
2023-06-17T01:51:25.863Z,11.10
2023-06-17T01:53:54.248Z,11.00
2023-06-17T01:56:22.071Z,11.00
2023-06-17T01:58:48.816Z,11.00
2023-06-17T02:01:15.791Z,11.00
2023-06-17T02:03:43.399Z,11.00
2023-06-17T02:06:10.303Z,11.00
2023-06-17T02:08:37.076Z,10.90
2023-06-17T02:11:04.176Z,10.90
2023-06-17T02:13:30.937Z,10.90
2023-06-17T02:15:57.997Z,11.00
2023-06-17T02:18:25.292Z,10.90
2023-06-17T02:20:52.119Z,10.80
2023-06-17T02:23:18.794Z,10.70
2023-06-17T02:25:45.553Z,10.70
2023-06-17T02:28:12.299Z,10.60
2023-06-17T02:30:39.050Z,10.60
2023-06-17T02:33:05.883Z,10.70
2023-06-17T02:35:32.581Z,10.70
2023-06-17T02:38:00.450Z,10.60
2023-06-17T02:40:27.330Z,10.60
2023-06-17T02:42:54.050Z,10.50
2023-06-17T02:45:20.766Z,10.50
2023-06-17T02:47:47.614Z,10.50
2023-06-17T02:50:14.414Z,10.40
2023-06-17T02:52:41.566Z,10.50
2023-06-17T02:55:08.809Z,10.40
2023-06-17T02:57:36.734Z,10.40
2023-06-17T03:00:06.194Z,10.40
2023-06-17T03:02:33.145Z,10.40
2023-06-17T03:05:00.208Z,10.50
2023-06-17T03:07:27.013Z,10.60
2023-06-17T03:09:54.135Z,10.60
2023-06-17T03:12:21.568Z,10.50
2023-06-17T03:14:48.668Z,10.50
2023-06-17T03:17:18.045Z,10.50
2023-06-17T03:19:45.796Z,10.50
2023-06-17T03:22:12.505Z,10.40
2023-06-17T03:24:43.519Z,10.50
2023-06-17T03:27:11.315Z,10.50
2023-06-17T03:29:38.018Z,10.50
2023-06-17T03:32:05.900Z,10.50
2023-06-17T03:34:33.872Z,10.50
2023-06-17T03:37:05.520Z,10.50
2023-06-17T03:39:32.239Z,10.60
2023-06-17T03:41:58.986Z,10.60
2023-06-17T03:44:26.774Z,10.60
2023-06-17T03:46:53.482Z,10.60
2023-06-17T03:49:20.434Z,10.60
2023-06-17T03:51:47.257Z,10.60
2023-06-17T03:54:14.277Z,10.70
2023-06-17T03:56:42.131Z,10.70
2023-06-17T03:59:09.971Z,10.80
2023-06-17T04:01:36.864Z,10.80
2023-06-17T04:04:04.222Z,10.90
2023-06-17T04:06:31.361Z,10.90
2023-06-17T04:08:58.303Z,11.00
2023-06-17T04:11:24.964Z,11.30
2023-06-17T04:13:51.715Z,11.50
2023-06-17T04:16:18.354Z,11.80
2023-06-17T04:18:46.457Z,11.80
2023-06-17T04:21:13.200Z,11.90
2023-06-17T04:23:40.047Z,11.90
2023-06-17T04:26:07.701Z,11.90
2023-06-17T04:28:35.416Z,11.90
2023-06-17T04:31:02.511Z,12.00
2023-06-17T04:33:32.007Z,12.00
2023-06-17T04:36:00.509Z,12.10
2023-06-17T04:38:27.725Z,12.20
2023-06-17T04:40:54.515Z,12.30
2023-06-17T04:43:24.080Z,12.40
2023-06-17T04:45:52.634Z,12.40
2023-06-17T04:48:20.650Z,12.50
2023-06-17T04:50:48.886Z,12.60
2023-06-17T04:53:15.629Z,12.70
2023-06-17T04:55:42.916Z,12.90
2023-06-17T04:58:11.176Z,13.00
2023-06-17T05:00:42.026Z,13.20
2023-06-17T05:03:12.420Z,13.40
2023-06-17T05:05:39.296Z,13.60
2023-06-17T05:08:16.406Z,13.80
2023-06-17T05:10:44.367Z,13.90
2023-06-17T05:13:11.175Z,14.10
2023-06-17T05:15:37.947Z,14.20
2023-06-17T05:18:04.672Z,14.30
2023-06-17T05:20:32.466Z,14.40
2023-06-17T05:22:59.876Z,14.50
2023-06-17T05:25:26.681Z,14.60
2023-06-17T05:27:53.442Z,14.70
2023-06-17T05:30:23.354Z,14.80
2023-06-17T05:32:53.518Z,14.90
2023-06-17T05:35:20.391Z,15.00
2023-06-17T05:37:47.926Z,15.00
2023-06-17T05:40:14.744Z,15.00
2023-06-17T05:42:41.656Z,15.10
2023-06-17T05:45:08.985Z,15.20
2023-06-17T05:47:37.172Z,15.30
2023-06-17T05:50:03.984Z,15.40
2023-06-17T05:52:32.032Z,15.40
2023-06-17T05:54:59.497Z,15.60
2023-06-17T05:57:26.626Z,15.70
2023-06-17T05:59:53.469Z,15.80
2023-06-17T06:02:20.191Z,15.90
2023-06-17T06:04:48.312Z,15.90
2023-06-17T06:07:15.134Z,15.90
2023-06-17T06:09:41.853Z,16.00
2023-06-17T06:12:08.767Z,16.00
2023-06-17T06:14:36.352Z,16.00
2023-06-17T06:17:04.833Z,16.00
2023-06-17T06:19:31.503Z,16.10
2023-06-17T06:21:58.213Z,16.30
2023-06-17T06:24:24.914Z,16.40
2023-06-17T06:26:51.747Z,16.50
2023-06-17T06:29:18.675Z,16.70
2023-06-17T06:31:45.996Z,16.80
2023-06-17T06:34:14.868Z,17.00
2023-06-17T06:36:42.516Z,17.10
2023-06-17T06:39:09.354Z,17.10
2023-06-17T06:41:36.019Z,17.10
2023-06-17T06:44:18.921Z,17.00
2023-06-17T06:46:46.380Z,16.90
2023-06-17T06:49:13.328Z,16.80
2023-06-17T06:51:40.417Z,16.80
2023-06-17T06:54:07.751Z,16.90
2023-06-17T06:56:34.524Z,16.90
2023-06-17T06:59:01.350Z,17.00
2023-06-17T07:01:28.220Z,17.00
2023-06-17T07:03:55.585Z,17.10
2023-06-17T07:06:22.911Z,17.20
2023-06-17T07:08:50.733Z,17.30
2023-06-17T07:11:18.620Z,17.30
2023-06-17T07:13:45.960Z,17.30
2023-06-17T07:16:12.868Z,17.40
2023-06-17T07:18:40.067Z,17.40
2023-06-17T07:21:06.774Z,17.50
2023-06-17T07:23:33.745Z,17.60
2023-06-17T07:26:00.434Z,17.80
2023-06-17T07:28:29.869Z,17.90
2023-06-17T07:30:56.980Z,17.80
2023-06-17T07:33:23.854Z,17.90
2023-06-17T07:35:50.625Z,17.90
2023-06-17T07:38:17.561Z,17.90
2023-06-17T07:40:44.266Z,18.10
2023-06-17T07:43:10.955Z,18.10
2023-06-17T07:45:37.599Z,18.10
2023-06-17T07:48:04.539Z,18.20
2023-06-17T07:50:31.335Z,18.20
2023-06-17T07:52:58.209Z,18.40
2023-06-17T07:55:25.001Z,18.40
2023-06-17T07:57:51.705Z,18.50
2023-06-17T08:00:18.672Z,18.60
2023-06-17T08:02:46.129Z,18.80
2023-06-17T08:05:12.915Z,18.80
2023-06-17T08:07:39.560Z,19.00
2023-06-17T08:10:17.256Z,19.10
2023-06-17T08:12:44.414Z,19.10
2023-06-17T08:15:11.562Z,19.10
2023-06-17T08:17:38.257Z,19.20
2023-06-17T08:20:05.683Z,19.40
2023-06-17T08:22:32.457Z,19.70
2023-06-17T08:24:59.144Z,19.60
2023-06-17T08:27:26.320Z,19.80
2023-06-17T08:29:52.972Z,20.00
2023-06-17T08:32:19.613Z,19.80
2023-06-17T08:34:46.264Z,20.10
2023-06-17T08:37:12.994Z,20.30
2023-06-17T08:39:41.104Z,20.40
2023-06-17T08:42:09.376Z,20.40
2023-06-17T08:44:46.285Z,20.30
2023-06-17T08:47:16.787Z,20.40
2023-06-17T08:49:44.973Z,20.50
2023-06-17T08:52:14.645Z,20.80
2023-06-17T08:54:42.421Z,21.30
2023-06-17T08:57:13.562Z,21.20
2023-06-17T08:59:41.573Z,21.30
2023-06-17T09:02:10.004Z,21.40
2023-06-17T09:04:36.740Z,21.70
2023-06-17T09:07:03.680Z,21.70
2023-06-17T09:09:30.376Z,22.50
2023-06-17T09:11:57.048Z,22.70
2023-06-17T09:14:23.746Z,22.80
2023-06-17T09:16:51.551Z,22.80
2023-06-17T09:19:18.806Z,23.00
2023-06-17T09:21:48.779Z,22.50
2023-06-17T09:24:15.946Z,22.90
2023-06-17T09:26:44.412Z,22.90
2023-06-17T09:29:14.630Z,23.40
2023-06-17T09:32:07.765Z,24.10
2023-06-17T09:34:34.429Z,24.00
2023-06-17T09:37:02.312Z,24.30
2023-06-17T09:39:34.041Z,23.90
2023-06-17T09:42:09.066Z,24.10
2023-06-17T09:44:38.257Z,24.40
2023-06-17T09:47:09.479Z,24.60
2023-06-17T09:49:37.471Z,24.50
2023-06-17T09:52:06.624Z,24.70
2023-06-17T09:54:34.960Z,25.00
2023-06-17T09:57:02.999Z,24.50
2023-06-17T09:59:30.264Z,25.10
2023-06-17T10:01:57.863Z,25.40
2023-06-17T10:04:24.713Z,25.70
2023-06-17T10:06:54.081Z,25.60
2023-06-17T10:09:21.582Z,25.50
2023-06-17T10:11:53.803Z,25.60
2023-06-17T10:14:32.384Z,26.40
2023-06-17T10:17:01.063Z,26.40
2023-06-17T10:19:33.161Z,26.40
2023-06-17T10:22:01.979Z,26.90
2023-06-17T10:24:29.350Z,26.90
2023-06-17T10:29:30.648Z,26.10
2023-06-17T10:32:17.269Z,26.20
2023-06-17T10:35:06.831Z,25.40
2023-06-17T10:37:44.996Z,26.50
2023-06-17T10:40:24.086Z,27.10
2023-06-17T10:43:03.277Z,26.00
2023-06-17T10:45:32.035Z,27.00
2023-06-17T10:48:21.668Z,27.50
2023-06-17T10:50:57.599Z,27.60
2023-06-17T10:53:33.008Z,27.10
2023-06-17T10:56:02.770Z,26.50
2023-06-17T10:58:31.862Z,26.50
2023-06-17T11:01:07.164Z,26.60
2023-06-17T11:03:34.288Z,27.00
2023-06-17T11:06:02.957Z,27.30
2023-06-17T11:08:31.389Z,27.60
2023-06-17T11:11:09.931Z,27.80
2023-06-17T11:13:38.743Z,28.40
2023-06-17T11:16:05.884Z,28.00
2023-06-17T11:18:36.118Z,27.50
2023-06-17T11:21:04.587Z,27.90
2023-06-17T11:23:31.663Z,28.30
2023-06-17T11:25:59.164Z,28.20
2023-06-17T11:28:25.934Z,28.40
2023-06-17T11:30:52.845Z,28.20
2023-06-17T11:33:21.411Z,28.20
2023-06-17T11:35:51.982Z,27.70
2023-06-17T11:38:20.811Z,27.60
2023-06-17T11:40:47.716Z,27.50
2023-06-17T11:43:14.616Z,27.50
2023-06-17T11:45:42.022Z,28.10
2023-06-17T11:48:08.708Z,28.30
2023-06-17T11:50:38.580Z,28.20
2023-06-17T11:53:05.426Z,27.90
2023-06-17T11:55:36.146Z,28.20
2023-06-17T11:58:04.527Z,28.00
2023-06-17T12:00:36.437Z,28.40
2023-06-17T12:03:04.729Z,27.70
2023-06-17T12:05:32.657Z,27.40
2023-06-17T12:08:01.196Z,28.10
2023-06-17T12:10:28.214Z,28.80
2023-06-17T12:12:58.699Z,29.30
2023-06-17T12:15:36.468Z,29.30
2023-06-17T12:18:12.009Z,28.70
2023-06-17T12:20:39.521Z,28.90
2023-06-17T12:23:06.394Z,29.00
2023-06-17T12:25:36.824Z,29.10
2023-06-17T12:28:03.667Z,28.50
2023-06-17T12:30:31.055Z,28.70
2023-06-17T12:32:58.337Z,28.50
2023-06-17T12:35:25.841Z,28.80
2023-06-17T12:37:56.604Z,28.60
2023-06-17T12:40:23.703Z,28.70
2023-06-17T12:42:50.438Z,28.90
2023-06-17T12:45:17.134Z,28.90
2023-06-17T12:47:43.853Z,28.90
2023-06-17T12:50:11.214Z,28.90
2023-06-17T12:52:38.297Z,28.70
2023-06-17T12:55:06.414Z,28.90
2023-06-17T12:57:34.189Z,28.90
2023-06-17T13:00:01.393Z,28.30
2023-06-17T13:02:28.383Z,28.10
2023-06-17T13:04:55.107Z,28.00
2023-06-17T13:07:21.823Z,27.80
2023-06-17T13:09:48.568Z,28.50
2023-06-17T13:12:15.295Z,29.10
2023-06-17T13:14:42.423Z,29.40
2023-06-17T13:17:09.167Z,29.70
2023-06-17T13:19:35.869Z,29.20
2023-06-17T13:22:02.546Z,27.70
2023-06-17T13:24:29.303Z,27.70
2023-06-17T13:26:56.064Z,28.10
2023-06-17T13:29:24.130Z,28.80
2023-06-17T13:31:51.298Z,28.80
2023-06-17T13:34:19.145Z,27.80
2023-06-17T13:36:47.318Z,28.90
2023-06-17T13:39:15.021Z,28.70
2023-06-17T13:41:42.898Z,28.90
2023-06-17T13:44:10.140Z,28.70
2023-06-17T13:46:37.123Z,28.80
2023-06-17T13:49:04.230Z,28.30
2023-06-17T13:51:32.388Z,29.10
2023-06-17T13:54:01.801Z,29.30
2023-06-17T13:56:29.067Z,29.20
2023-06-17T13:58:56.599Z,28.90
2023-06-17T14:01:24.513Z,29.30
2023-06-17T14:03:51.860Z,28.90
2023-06-17T14:06:20.741Z,29.40
2023-06-17T14:08:47.592Z,29.60
2023-06-17T14:11:14.394Z,29.50
2023-06-17T14:13:41.770Z,28.80
2023-06-17T14:16:10.653Z,29.80
2023-06-17T14:18:37.655Z,30.00
2023-06-17T14:21:04.363Z,29.80
2023-06-17T14:23:31.038Z,30.30
2023-06-17T14:25:57.878Z,30.30
2023-06-17T14:28:24.601Z,29.90
2023-06-17T14:30:52.092Z,29.40
2023-06-17T14:33:18.959Z,29.20
2023-06-17T14:35:45.748Z,29.50
2023-06-17T14:38:12.482Z,29.90
2023-06-17T14:40:39.161Z,30.40
2023-06-17T14:43:08.008Z,30.50
2023-06-17T14:45:34.917Z,29.90
2023-06-17T14:48:01.974Z,30.50
2023-06-17T14:50:29.038Z,30.70
2023-06-17T14:52:55.974Z,30.70
2023-06-17T14:55:22.850Z,30.90
2023-06-17T14:57:49.517Z,30.70
2023-06-17T15:00:16.613Z,30.70
2023-06-17T15:02:52.756Z,30.50
2023-06-17T15:05:19.593Z,30.80
2023-06-17T15:07:46.387Z,30.40
2023-06-17T15:10:13.083Z,30.20
2023-06-17T15:12:43.077Z,30.80
2023-06-17T15:15:13.928Z,31.40
2023-06-17T15:17:42.364Z,32.00
2023-06-17T15:20:10.821Z,31.40
2023-06-17T15:22:37.679Z,31.20
2023-06-17T15:25:04.763Z,30.60
2023-06-17T15:27:31.423Z,30.70
2023-06-17T15:29:58.123Z,30.70
2023-06-17T15:32:24.835Z,31.00
2023-06-17T15:34:52.885Z,31.40
2023-06-17T15:37:19.540Z,31.40
2023-06-17T15:39:46.310Z,31.70
2023-06-17T15:42:13.055Z,31.50
2023-06-17T15:44:39.777Z,31.60
2023-06-17T15:47:06.723Z,31.30
2023-06-17T15:49:33.497Z,31.60
2023-06-17T15:52:00.226Z,32.00
2023-06-17T15:54:26.933Z,32.40
2023-06-17T15:56:53.869Z,32.20
2023-06-17T15:59:21.290Z,30.80
2023-06-17T16:01:48.317Z,30.10
2023-06-17T16:04:40.263Z,30.50
2023-06-17T16:07:12.375Z,30.50
2023-06-17T16:09:50.822Z,30.60
2023-06-17T16:12:18.332Z,30.90
2023-06-17T16:14:45.861Z,30.80
2023-06-17T16:17:12.887Z,30.00
2023-06-17T16:19:39.949Z,30.40
2023-06-17T16:22:10.991Z,30.50
2023-06-17T16:24:39.122Z,31.20
2023-06-17T16:27:06.260Z,31.30
2023-06-17T16:29:32.990Z,31.30
2023-06-17T16:31:59.788Z,31.30
2023-06-17T16:34:26.520Z,32.20
2023-06-17T16:36:53.195Z,32.20
2023-06-17T16:39:20.163Z,32.30
2023-06-17T16:41:46.872Z,31.80
2023-06-17T16:44:13.611Z,31.60
2023-06-17T16:46:40.448Z,31.50
2023-06-17T16:49:07.342Z,31.00
2023-06-17T16:51:34.097Z,30.50
2023-06-17T16:54:03.743Z,30.40
2023-06-17T16:56:32.199Z,30.30
2023-06-17T16:58:58.940Z,30.50
2023-06-17T17:01:25.694Z,30.80
2023-06-17T17:03:52.454Z,30.80
2023-06-17T17:06:19.134Z,30.50
2023-06-17T17:08:49.232Z,31.20
2023-06-17T17:11:16.145Z,31.40
2023-06-17T17:13:48.696Z,31.00
2023-06-17T17:16:16.615Z,31.00
2023-06-17T17:18:43.343Z,31.10
2023-06-17T17:21:10.056Z,31.10
2023-06-17T17:23:36.805Z,30.70
2023-06-17T17:26:03.495Z,29.90
2023-06-17T17:28:30.325Z,29.70
2023-06-17T17:30:57.116Z,29.80
2023-06-17T17:33:24.710Z,29.80
2023-06-17T17:35:51.865Z,29.90
2023-06-17T17:38:18.596Z,29.90
2023-06-17T17:40:45.373Z,30.10
2023-06-17T17:43:12.368Z,30.20
2023-06-17T17:45:39.018Z,30.30
2023-06-17T17:48:06.000Z,30.40
2023-06-17T17:50:33.174Z,29.80
2023-06-17T17:53:00.196Z,29.80
2023-06-17T17:55:26.979Z,29.90
2023-06-17T17:57:53.818Z,30.20
2023-06-17T18:00:20.842Z,29.60
2023-06-17T18:02:47.770Z,29.10
2023-06-17T18:05:14.463Z,29.30
2023-06-17T18:07:41.138Z,29.40
2023-06-17T18:10:07.922Z,28.70
2023-06-17T18:12:34.631Z,28.50
2023-06-17T18:15:01.628Z,28.30
2023-06-17T18:17:34.083Z,28.40
2023-06-17T18:20:00.794Z,28.40
2023-06-17T18:22:27.507Z,28.00
2023-06-17T18:25:19.728Z,27.30
2023-06-17T18:27:46.434Z,26.60
2023-06-17T18:30:13.337Z,25.90
2023-06-17T18:32:40.092Z,25.50
2023-06-17T18:35:07.362Z,25.10
2023-06-17T18:37:34.006Z,24.90
2023-06-17T18:40:02.771Z,24.80
2023-06-17T18:42:30.003Z,24.50
2023-06-17T18:44:56.743Z,24.60
2023-06-17T18:47:23.561Z,24.70
2023-06-17T18:49:50.800Z,24.70
2023-06-17T18:52:17.738Z,24.60
2023-06-17T18:54:44.431Z,24.40
2023-06-17T18:57:11.356Z,24.20
2023-06-17T18:59:38.001Z,23.90
2023-06-17T19:02:04.974Z,23.60
2023-06-17T19:04:31.931Z,23.20
2023-06-17T19:06:58.577Z,23.00
2023-06-17T19:09:25.286Z,23.00
2023-06-17T19:11:51.968Z,22.90
2023-06-17T19:14:19.255Z,22.60
2023-06-17T19:16:46.679Z,22.40
2023-06-17T19:19:13.371Z,22.10
2023-06-17T19:21:40.128Z,21.90
2023-06-17T19:24:06.848Z,21.70
2023-06-17T19:26:34.624Z,21.40
2023-06-17T19:29:01.395Z,21.10
2023-06-17T19:31:28.088Z,20.90
2023-06-17T19:33:55.427Z,20.60
2023-06-17T19:36:22.067Z,20.50
2023-06-17T19:38:48.702Z,20.20
2023-06-17T19:41:15.617Z,20.10
2023-06-17T19:43:42.244Z,19.90
2023-06-17T19:46:09.375Z,19.80
2023-06-17T19:48:36.601Z,19.60
2023-06-17T19:51:03.314Z,19.50
2023-06-17T19:53:30.055Z,19.30
2023-06-17T19:55:56.825Z,19.10
2023-06-17T19:58:23.536Z,19.10
2023-06-17T20:00:50.319Z,18.80
2023-06-17T20:03:17.499Z,18.70
2023-06-17T20:05:46.204Z,18.50
2023-06-17T20:08:13.571Z,18.50
2023-06-17T20:10:40.557Z,18.30
2023-06-17T20:13:07.572Z,18.20
2023-06-17T20:15:35.114Z,18.10
2023-06-17T20:18:01.986Z,18.10
2023-06-17T20:20:28.841Z,17.90
2023-06-17T20:22:55.620Z,17.90
2023-06-17T20:25:22.339Z,17.80
2023-06-17T20:27:49.170Z,17.70
2023-06-17T20:30:15.944Z,17.60
2023-06-17T20:32:42.683Z,17.50
2023-06-17T20:35:09.675Z,17.40
2023-06-17T20:37:37.100Z,17.40
2023-06-17T20:40:04.860Z,17.30
2023-06-17T20:42:31.589Z,17.20
2023-06-17T20:44:58.250Z,17.10
2023-06-17T20:47:25.003Z,17.10
2023-06-17T20:49:51.737Z,17.00
2023-06-17T20:52:18.433Z,16.90
2023-06-17T20:54:45.116Z,16.80
2023-06-17T20:57:12.038Z,16.90
2023-06-17T20:59:38.684Z,16.80
2023-06-17T21:02:05.514Z,16.80
2023-06-17T21:04:32.225Z,16.70
2023-06-17T21:06:58.944Z,16.60
2023-06-17T21:09:26.280Z,16.50
2023-06-17T21:11:53.009Z,16.50
2023-06-17T21:14:20.077Z,16.40
2023-06-17T21:16:46.814Z,16.30
2023-06-17T21:19:13.485Z,16.20
2023-06-17T21:21:40.242Z,16.10
2023-06-17T21:24:06.958Z,16.10
2023-06-17T21:26:33.646Z,16.00
2023-06-17T21:29:00.392Z,16.00
2023-06-17T21:31:27.180Z,15.90
2023-06-17T21:33:54.299Z,15.90
2023-06-17T21:36:21.463Z,15.80
2023-06-17T21:38:48.154Z,15.80
2023-06-17T21:41:15.592Z,15.80
2023-06-17T21:43:42.229Z,15.70
2023-06-17T21:46:09.040Z,15.70
2023-06-17T21:48:35.779Z,15.60
2023-06-17T21:51:03.021Z,15.50
2023-06-17T21:53:29.742Z,15.40
2023-06-17T21:55:56.408Z,15.40
2023-06-17T21:58:23.142Z,15.40
2023-06-17T22:00:50.463Z,15.40
2023-06-17T22:03:21.059Z,15.40
2023-06-17T22:05:49.327Z,15.30
2023-06-17T22:08:17.345Z,15.40
2023-06-17T22:10:45.626Z,15.20
2023-06-17T22:13:12.318Z,15.20
2023-06-17T22:15:39.056Z,15.00
2023-06-17T22:18:05.910Z,15.00
2023-06-17T22:20:33.047Z,15.00
2023-06-17T22:23:00.027Z,15.10
2023-06-17T22:25:26.717Z,15.00
2023-06-17T22:27:56.444Z,14.90
2023-06-17T22:30:23.810Z,14.90
2023-06-17T22:32:50.831Z,14.80
2023-06-17T22:35:17.668Z,14.80
2023-06-17T22:37:44.892Z,14.90
2023-06-17T22:40:12.286Z,14.80
2023-06-17T22:42:39.002Z,14.70
2023-06-17T22:45:06.314Z,14.60
2023-06-17T22:47:33.053Z,14.50
2023-06-17T22:49:59.754Z,14.50
2023-06-17T22:52:26.558Z,14.40
2023-06-17T22:54:53.321Z,14.40
2023-06-17T22:57:20.010Z,14.40
2023-06-17T22:59:47.239Z,14.40
2023-06-17T23:02:14.046Z,14.40
2023-06-17T23:04:41.065Z,14.30
2023-06-17T23:07:07.798Z,14.20
2023-06-17T23:09:34.444Z,14.20
2023-06-17T23:12:01.315Z,14.10
2023-06-17T23:14:28.053Z,14.00
2023-06-17T23:16:54.890Z,13.90
2023-06-17T23:19:21.672Z,13.90
2023-06-17T23:21:49.196Z,14.00
2023-06-17T23:24:17.690Z,14.00
2023-06-17T23:26:44.785Z,14.00
2023-06-17T23:29:12.710Z,13.90
2023-06-17T23:31:39.513Z,13.90
2023-06-17T23:34:06.455Z,13.70
2023-06-17T23:36:35.875Z,13.70
2023-06-17T23:39:02.680Z,13.70
2023-06-17T23:41:29.390Z,13.60
2023-06-17T23:43:56.100Z,13.60
2023-06-17T23:46:25.035Z,13.60
2023-06-17T23:48:51.990Z,13.60
2023-06-17T23:51:18.722Z,13.60
2023-06-17T23:53:45.415Z,13.70
2023-06-17T23:56:12.158Z,13.60
2023-06-17T23:58:39.178Z,13.50
